Aviation Digital Data Service (ADDS)

Output produced by METARs form (1351 UTC 13 December 2019)
found at http://www.aviationweather.gov/metar/data/
 
METAR text: RJOA 131300Z 05002KT CAVOK 05/M02 Q1024
Conditions at: RJOA (NEW HIROSHIMA , JP) observed 1300 UTC 13 December 2019
Temperature: 5.0°C (41°F)
Dewpoint: -2.0°C (28°F) [RH = 60%]
Pressure (altimeter): 30.24 inches Hg (1024.0 mb)
Winds: from the NE (50 degrees) at 2 MPH (2 knots; 1.0 m/s)
Visibility: 6 or more miles (10+ km)
Ceiling: ceiling and visibility are OK
Clouds: unknown
Weather: no significant weather observed at this time

METAR text: RJOA 131200Z VRB01KT CAVOK 06/M02 Q1025
Conditions at: RJOA (NEW HIROSHIMA , JP) observed 1200 UTC 13 December 2019
Temperature: 6.0°C (43°F)
Dewpoint: -2.0°C (28°F) [RH = 56%]
Pressure (altimeter): 30.27 inches Hg (1025.0 mb)
Winds: variable direction winds at 1 MPH (1 knots; 0.5 m/s)
Visibility: 6 or more miles (10+ km)
Ceiling: ceiling and visibility are OK
Clouds: unknown
Weather: no significant weather observed at this time

METAR text: RJOA 131100Z VRB01KT CAVOK 07/M02 Q1025
Conditions at: RJOA (NEW HIROSHIMA , JP) observed 1100 UTC 13 December 2019
Temperature: 7.0°C (45°F)
Dewpoint: -2.0°C (28°F) [RH = 53%]
Pressure (altimeter): 30.27 inches Hg (1025.0 mb)
Winds: variable direction winds at 1 MPH (1 knots; 0.5 m/s)
Visibility: 6 or more miles (10+ km)
Ceiling: ceiling and visibility are OK
Clouds: unknown
Weather: no significant weather observed at this time

METAR text: RJOA 131000Z VRB01KT CAVOK 07/M03 Q1025
Conditions at: RJOA (NEW HIROSHIMA , JP) observed 1000 UTC 13 December 2019
Temperature: 7.0°C (45°F)
Dewpoint: -3.0°C (27°F) [RH = 49%]
Pressure (altimeter): 30.27 inches Hg (1025.0 mb)
Winds: variable direction winds at 1 MPH (1 knots; 0.5 m/s)
Visibility: 6 or more miles (10+ km)
Ceiling: ceiling and visibility are OK
Clouds: unknown
Weather: no significant weather observed at this time

METAR text: RJOA 130900Z VRB01KT CAVOK 07/M03 Q1025
Conditions at: RJOA (NEW HIROSHIMA , JP) observed 0900 UTC 13 December 2019
Temperature: 7.0°C (45°F)
Dewpoint: -3.0°C (27°F) [RH = 49%]
Pressure (altimeter): 30.27 inches Hg (1025.0 mb)
Winds: variable direction winds at 1 MPH (1 knots; 0.5 m/s)
Visibility: 6 or more miles (10+ km)
Ceiling: ceiling and visibility are OK
Clouds: unknown
Weather: no significant weather observed at this time

METAR text: RJOA 130800Z VRB02KT 9999 FEW002 BKN/// 08/M03 Q1025
Conditions at: RJOA (NEW HIROSHIMA , JP) observed 0800 UTC 13 December 2019
Temperature: 8.0°C (46°F)
Dewpoint: -3.0°C (27°F) [RH = 46%]
Pressure (altimeter): 30.27 inches Hg (1025.0 mb)
Winds: variable direction winds at 2 MPH (2 knots; 1.0 m/s)
Visibility: 6 or more miles (10+ km)
Ceiling: at least 12,000 feet AGL
Clouds: few clouds at 200 feet AGL
Weather: no significant weather observed at this time

METAR text: RJOA 130700Z VRB02KT 9999 FEW002 BKN/// 09/M03 Q1025
Conditions at: RJOA (NEW HIROSHIMA , JP) observed 0700 UTC 13 December 2019
Temperature: 9.0°C (48°F)
Dewpoint: -3.0°C (27°F) [RH = 43%]
Pressure (altimeter): 30.27 inches Hg (1025.0 mb)
Winds: variable direction winds at 2 MPH (2 knots; 1.0 m/s)
Visibility: 6 or more miles (10+ km)
Ceiling: at least 12,000 feet AGL
Clouds: few clouds at 200 feet AGL
Weather: no significant weather observed at this time

METAR text: RJOA 130600Z VRB02KT 9999 FEW030 SCT170 BKN/// 10/M04 Q1025
Conditions at: RJOA (NEW HIROSHIMA , JP) observed 0600 UTC 13 December 2019
Temperature: 10.0°C (50°F)
Dewpoint: -4.0°C (25°F) [RH = 37%]
Pressure (altimeter): 30.27 inches Hg (1025.0 mb)
Winds: variable direction winds at 2 MPH (2 knots; 1.0 m/s)
Visibility: 6 or more miles (10+ km)
Ceiling: at least 12,000 feet AGL
Clouds: few clouds at 3000 feet AGL
scattered clouds at 17000 feet AGL
Weather: no significant weather observed at this time

METAR text: RJOA 130500Z 20003KT 9999 FEW030 SCT170 BKN/// 10/M03 Q1025
Conditions at: RJOA (NEW HIROSHIMA , JP) observed 0500 UTC 13 December 2019
Temperature: 10.0°C (50°F)
Dewpoint: -3.0°C (27°F) [RH = 40%]
Pressure (altimeter): 30.27 inches Hg (1025.0 mb)
Winds: from the SSW (200 degrees) at 3 MPH (3 knots; 1.5 m/s)
Visibility: 6 or more miles (10+ km)
Ceiling: at least 12,000 feet AGL
Clouds: few clouds at 3000 feet AGL
scattered clouds at 17000 feet AGL
Weather: no significant weather observed at this time

METAR text: RJOA 130400Z 15003KT 090V200 9999 FEW030 SCT170 BKN/// 09/M04 Q1025
Conditions at: RJOA (NEW HIROSHIMA , JP) observed 0400 UTC 13 December 2019
Temperature: 9.0°C (48°F)
Dewpoint: -4.0°C (25°F) [RH = 40%]
Pressure (altimeter): 30.27 inches Hg (1025.0 mb)
Winds: from the SSE (150 degrees) at 3 MPH (3 knots; 1.5 m/s)
Visibility: 6 or more miles (10+ km)
Ceiling: at least 12,000 feet AGL
Clouds: few clouds at 3000 feet AGL
scattered clouds at 17000 feet AGL
Weather: no significant weather observed at this time

METAR text: RJOA 130300Z 13003KT 070V250 9999 FEW030 BKN/// 09/M05 Q1026
Conditions at: RJOA (NEW HIROSHIMA , JP) observed 0300 UTC 13 December 2019
Temperature: 9.0°C (48°F)
Dewpoint: -5.0°C (23°F) [RH = 37%]
Pressure (altimeter): 30.30 inches Hg (1026.0 mb)
Winds: from the SE (130 degrees) at 3 MPH (3 knots; 1.5 m/s)
Visibility: 6 or more miles (10+ km)
Ceiling: at least 12,000 feet AGL
Clouds: few clouds at 3000 feet AGL
Weather: no significant weather observed at this time

METAR text: RJOA 130200Z 10003KT 050V140 9999 FEW025 SCT/// 07/M04 Q1027
Conditions at: RJOA (NEW HIROSHIMA , JP) observed 0200 UTC 13 December 2019
Temperature: 7.0°C (45°F)
Dewpoint: -4.0°C (25°F) [RH = 45%]
Pressure (altimeter): 30.32 inches Hg (1027.0 mb)
Winds: from the E (100 degrees) at 3 MPH (3 knots; 1.5 m/s)
Visibility: 6 or more miles (10+ km)
Ceiling: at least 12,000 feet AGL
Clouds: few clouds at 2500 feet AGL
Weather: no significant weather observed at this time

METAR text: RJOA 130100Z VRB01KT 9999 FEW025 BKN/// 06/M03 Q1027
Conditions at: RJOA (NEW HIROSHIMA , JP) observed 0100 UTC 13 December 2019
Temperature: 6.0°C (43°F)
Dewpoint: -3.0°C (27°F) [RH = 52%]
Pressure (altimeter): 30.32 inches Hg (1027.0 mb)
Winds: variable direction winds at 1 MPH (1 knots; 0.5 m/s)
Visibility: 6 or more miles (10+ km)
Ceiling: at least 12,000 feet AGL
Clouds: few clouds at 2500 feet AGL
Weather: no significant weather observed at this time

METAR text: RJOA 130000Z VRB01KT 9999 FEW025 BKN/// 04/M03 Q1027
Conditions at: RJOA (NEW HIROSHIMA , JP) observed 0000 UTC 13 December 2019
Temperature: 4.0°C (39°F)
Dewpoint: -3.0°C (27°F) [RH = 60%]
Pressure (altimeter): 30.32 inches Hg (1027.0 mb)
Winds: variable direction winds at 1 MPH (1 knots; 0.5 m/s)
Visibility: 6 or more miles (10+ km)
Ceiling: at least 12,000 feet AGL
Clouds: few clouds at 2500 feet AGL
Weather: no significant weather observed at this time

METAR text: RJOA 122300Z 31003KT 290V050 9999 FEW025 04/M04 Q1027
Conditions at: RJOA (NEW HIROSHIMA , JP) observed 2300 UTC 12 December 2019
Temperature: 4.0°C (39°F)
Dewpoint: -4.0°C (25°F) [RH = 56%]
Pressure (altimeter): 30.32 inches Hg (1027.0 mb)
Winds: from the NW (310 degrees) at 3 MPH (3 knots; 1.5 m/s)
Visibility: 6 or more miles (10+ km)
Ceiling: at least 12,000 feet AGL
Clouds: few clouds at 2500 feet AGL
Weather: no significant weather observed at this time

METAR text: RJOA 122200Z 31005KT 9999 FEW025 03/M05 Q1026
Conditions at: RJOA (NEW HIROSHIMA , JP) observed 2200 UTC 12 December 2019
Temperature: 3.0°C (37°F)
Dewpoint: -5.0°C (23°F) [RH = 56%]
Pressure (altimeter): 30.30 inches Hg (1026.0 mb)
Winds: from the NW (310 degrees) at 6 MPH (5 knots; 2.6 m/s)
Visibility: 6 or more miles (10+ km)
Ceiling: at least 12,000 feet AGL
Clouds: few clouds at 2500 feet AGL
Weather: no significant weather observed at this time

METAR text: RJOA 122110Z 30005KT 9999 FEW025 03/M04 Q1026 RMK 1CU025 A3031
Conditions at: RJOA (NEW HIROSHIMA , JP) observed 2110 UTC 12 December 2019
Temperature: 3.0°C (37°F)
Dewpoint: -4.0°C (25°F) [RH = 60%]
Pressure (altimeter): 30.30 inches Hg (1026.0 mb)
Winds: from the WNW (300 degrees) at 6 MPH (5 knots; 2.6 m/s)
Visibility: 6 or more miles (10+ km)
Ceiling: at least 12,000 feet AGL
Clouds: few clouds at 2500 feet AGL
Weather: no significant weather observed at this time

METAR text: RJOA 121300Z 01004KT 9999 FEW030 03/M06 Q1026
Conditions at: RJOA (NEW HIROSHIMA , JP) observed 1300 UTC 12 December 2019
Temperature: 3.0°C (37°F)
Dewpoint: -6.0°C (21°F) [RH = 52%]
Pressure (altimeter): 30.30 inches Hg (1026.0 mb)
Winds: from the N (10 degrees) at 5 MPH (4 knots; 2.1 m/s)
Visibility: 6 or more miles (10+ km)
Ceiling: at least 12,000 feet AGL
Clouds: few clouds at 3000 feet AGL
Weather: no significant weather observed at this time

METAR text: RJOA 121200Z 32007KT 9999 FEW030 04/M06 Q1026
Conditions at: RJOA (NEW HIROSHIMA , JP) observed 1200 UTC 12 December 2019
Temperature: 4.0°C (39°F)
Dewpoint: -6.0°C (21°F) [RH = 48%]
Pressure (altimeter): 30.30 inches Hg (1026.0 mb)
Winds: from the NW (320 degrees) at 8 MPH (7 knots; 3.6 m/s)
Visibility: 6 or more miles (10+ km)
Ceiling: at least 12,000 feet AGL
Clouds: few clouds at 3000 feet AGL
Weather: no significant weather observed at this time

METAR text: RJOA 121100Z 33002KT 9999 FEW030 04/M06 Q1025
Conditions at: RJOA (NEW HIROSHIMA , JP) observed 1100 UTC 12 December 2019
Temperature: 4.0°C (39°F)
Dewpoint: -6.0°C (21°F) [RH = 48%]
Pressure (altimeter): 30.27 inches Hg (1025.0 mb)
Winds: from the NNW (330 degrees) at 2 MPH (2 knots; 1.0 m/s)
Visibility: 6 or more miles (10+ km)
Ceiling: at least 12,000 feet AGL
Clouds: few clouds at 3000 feet AGL
Weather: no significant weather observed at this time

METAR text: RJOA 121000Z 32006KT 9999 FEW030 04/M06 Q1025
Conditions at: RJOA (NEW HIROSHIMA , JP) observed 1000 UTC 12 December 2019
Temperature: 4.0°C (39°F)
Dewpoint: -6.0°C (21°F) [RH = 48%]
Pressure (altimeter): 30.27 inches Hg (1025.0 mb)
Winds: from the NW (320 degrees) at 7 MPH (6 knots; 3.1 m/s)
Visibility: 6 or more miles (10+ km)
Ceiling: at least 12,000 feet AGL
Clouds: few clouds at 3000 feet AGL
Weather: no significant weather observed at this time

METAR text: RJOA 120900Z 31005KT 9999 FEW030 05/M06 Q1024
Conditions at: RJOA (NEW HIROSHIMA , JP) observed 0900 UTC 12 December 2019
Temperature: 5.0°C (41°F)
Dewpoint: -6.0°C (21°F) [RH = 45%]
Pressure (altimeter): 30.24 inches Hg (1024.0 mb)
Winds: from the NW (310 degrees) at 6 MPH (5 knots; 2.6 m/s)
Visibility: 6 or more miles (10+ km)
Ceiling: at least 12,000 feet AGL
Clouds: few clouds at 3000 feet AGL
Weather: no significant weather observed at this time

METAR text: RJOA 120800Z 33008KT 280V360 9999 FEW030 06/M06 Q1023
Conditions at: RJOA (NEW HIROSHIMA , JP) observed 0800 UTC 12 December 2019
Temperature: 6.0°C (43°F)
Dewpoint: -6.0°C (21°F) [RH = 42%]
Pressure (altimeter): 30.21 inches Hg (1023.0 mb)
Winds: from the NNW (330 degrees) at 9 MPH (8 knots; 4.1 m/s)
Visibility: 6 or more miles (10+ km)
Ceiling: at least 12,000 feet AGL
Clouds: few clouds at 3000 feet AGL
Weather: no significant weather observed at this time

METAR text: RJOA 120700Z 33010KT 300V360 9999 FEW030 SCT050 07/M06 Q1023
Conditions at: RJOA (NEW HIROSHIMA , JP) observed 0700 UTC 12 December 2019
Temperature: 7.0°C (45°F)
Dewpoint: -6.0°C (21°F) [RH = 39%]
Pressure (altimeter): 30.21 inches Hg (1023.0 mb)
Winds: from the NNW (330 degrees) at 12 MPH (10 knots; 5.1 m/s)
Visibility: 6 or more miles (10+ km)
Ceiling: at least 12,000 feet AGL
Clouds: few clouds at 3000 feet AGL
scattered clouds at 5000 feet AGL
Weather: no significant weather observed at this time

METAR text: RJOA 120600Z 33014KT 9999 FEW030 SCT040 08/M06 Q1022
Conditions at: RJOA (NEW HIROSHIMA , JP) observed 0600 UTC 12 December 2019
Temperature: 8.0°C (46°F)
Dewpoint: -6.0°C (21°F) [RH = 36%]
Pressure (altimeter): 30.18 inches Hg (1022.0 mb)
Winds: from the NNW (330 degrees) at 16 MPH (14 knots; 7.2 m/s)
Visibility: 6 or more miles (10+ km)
Ceiling: at least 12,000 feet AGL
Clouds: few clouds at 3000 feet AGL
scattered clouds at 4000 feet AGL
Weather: no significant weather observed at this time

METAR text: RJOA 120500Z 31012KT 9999 FEW030 SCT040 09/M06 Q1021
Conditions at: RJOA (NEW HIROSHIMA , JP) observed 0500 UTC 12 December 2019
Temperature: 9.0°C (48°F)
Dewpoint: -6.0°C (21°F) [RH = 34%]
Pressure (altimeter): 30.15 inches Hg (1021.0 mb)
Winds: from the NW (310 degrees) at 14 MPH (12 knots; 6.2 m/s)
Visibility: 6 or more miles (10+ km)
Ceiling: at least 12,000 feet AGL
Clouds: few clouds at 3000 feet AGL
scattered clouds at 4000 feet AGL
Weather: no significant weather observed at this time

METAR text: RJOA 120400Z 31012KT 9999 FEW030 SCT040 08/M06 Q1021
Conditions at: RJOA (NEW HIROSHIMA , JP) observed 0400 UTC 12 December 2019
Temperature: 8.0°C (46°F)
Dewpoint: -6.0°C (21°F) [RH = 36%]
Pressure (altimeter): 30.15 inches Hg (1021.0 mb)
Winds: from the NW (310 degrees) at 14 MPH (12 knots; 6.2 m/s)
Visibility: 6 or more miles (10+ km)
Ceiling: at least 12,000 feet AGL
Clouds: few clouds at 3000 feet AGL
scattered clouds at 4000 feet AGL
Weather: no significant weather observed at this time

METAR text: RJOA 120300Z 32009KT 290V350 9999 FEW030 SCT040 09/M05 Q1022
Conditions at: RJOA (NEW HIROSHIMA , JP) observed 0300 UTC 12 December 2019
Temperature: 9.0°C (48°F)
Dewpoint: -5.0°C (23°F) [RH = 37%]
Pressure (altimeter): 30.18 inches Hg (1022.0 mb)
Winds: from the NW (320 degrees) at 10 MPH (9 knots; 4.6 m/s)
Visibility: 6 or more miles (10+ km)
Ceiling: at least 12,000 feet AGL
Clouds: few clouds at 3000 feet AGL
scattered clouds at 4000 feet AGL
Weather: no significant weather observed at this time

METAR text: RJOA 120250Z 35008KT 330V040 9999 FEW030 SCT040 09/M06 Q1022 RMK 1CU030 4CU040 A3018
Conditions at: RJOA (NEW HIROSHIMA , JP) observed 0250 UTC 12 December 2019
Temperature: 9.0°C (48°F)
Dewpoint: -6.0°C (21°F) [RH = 34%]
Pressure (altimeter): 30.18 inches Hg (1022.0 mb)
Winds: from the N (350 degrees) at 9 MPH (8 knots; 4.1 m/s)
Visibility: 6 or more miles (10+ km)
Ceiling: at least 12,000 feet AGL
Clouds: few clouds at 3000 feet AGL
scattered clouds at 4000 feet AGL
Weather: no significant weather observed at this time

METAR text: RJOA 120200Z 29011KT 9999 FEW030 SCT040 08/M05 Q1022
Conditions at: RJOA (NEW HIROSHIMA , JP) observed 0200 UTC 12 December 2019
Temperature: 8.0°C (46°F)
Dewpoint: -5.0°C (23°F) [RH = 39%]
Pressure (altimeter): 30.18 inches Hg (1022.0 mb)
Winds: from the WNW (290 degrees) at 13 MPH (11 knots; 5.7 m/s)
Visibility: 6 or more miles (10+ km)
Ceiling: at least 12,000 feet AGL
Clouds: few clouds at 3000 feet AGL
scattered clouds at 4000 feet AGL
Weather: no significant weather observed at this time

Forecast for: RJOA (NEW HIROSHIMA , JP)
Text: TAF RJOA 131106Z 1312/1418 35005KT CAVOK
Forecast period: 1200 UTC 13 December 2019 to 0000 UTC 14 December 2019
Forecast type: FROM: standard forecast or significant change
Winds: from the N (350 degrees) at 6 MPH (5 knots; 2.6 m/s)
Visibility: 6 or more miles 10+ km)
Ceiling: unknown
Clouds: missing
Weather: NSW  (no significant weather)
Text: BECMG 1400/1403 28013KT
Forecast period: 0000 to 0900 UTC 14 December 2019
Forecast type: BECOMING: Conditions expected to become as follows by 0300 UTC 14 December 2019
Winds: from the W (280 degrees) at 15 MPH (13 knots; 6.7 m/s)
Visibility: 6 or more miles 10+ km)
Ceiling: unknown
Clouds: missing
Weather: NSW  (no significant weather)
Text: BECMG 1409/1412 35008KT
Forecast period: 0900 to 1800 UTC 14 December 2019
Forecast type: BECOMING: Conditions expected to become as follows by 1200 UTC 14 December 2019
Winds: from the N (350 degrees) at 9 MPH (8 knots; 4.1 m/s)
Visibility: 6 or more miles 10+ km)
Ceiling: unknown
Clouds: missing
Weather: NSW  (no significant weather)